createdAt,value
2019-02-04T00:00:45.403Z,25.03
2019-02-04T00:03:18.177Z,26.33
2019-02-04T00:05:50.309Z,25.43
2019-02-04T00:08:23.516Z,23.23
2019-02-04T00:10:59.207Z,31.70
2019-02-04T00:13:30.100Z,35.77
2019-02-04T00:16:01.618Z,24.60
2019-02-04T00:18:31.266Z,24.97
2019-02-04T00:21:01.450Z,29.40
2019-02-04T00:23:31.173Z,28.03
2019-02-04T00:26:00.845Z,27.73
2019-02-04T00:28:30.417Z,29.20
2019-02-04T00:31:00.132Z,28.00
2019-02-04T00:33:29.642Z,28.73
2019-02-04T00:35:59.605Z,31.03
2019-02-04T00:38:29.145Z,28.77
2019-02-04T00:40:58.718Z,26.47
2019-02-04T00:43:28.328Z,27.00
2019-02-04T00:45:57.889Z,34.40
2019-02-04T00:48:27.589Z,36.87
2019-02-04T00:50:57.260Z,30.47
2019-02-04T00:53:26.910Z,36.43
2019-02-04T00:55:56.622Z,31.07
2019-02-04T00:58:26.200Z,33.33
2019-02-04T01:00:56.170Z,32.13
2019-02-04T01:03:26.049Z,34.17
2019-02-04T01:05:55.840Z,31.87
2019-02-04T01:08:26.128Z,30.00
2019-02-04T01:10:55.915Z,36.07
2019-02-04T01:13:25.547Z,33.77
2019-02-04T01:15:55.341Z,31.90
2019-02-04T01:18:25.004Z,30.33
2019-02-04T01:20:54.660Z,32.23
2019-02-04T01:23:24.356Z,33.23
2019-02-04T01:25:54.003Z,30.80
2019-02-04T01:28:23.671Z,32.40
2019-02-04T01:30:53.642Z,34.40
2019-02-04T01:33:23.258Z,31.17
2019-02-04T01:35:52.910Z,34.80
2019-02-04T01:38:22.521Z,29.70
2019-02-04T01:40:52.231Z,33.70
2019-02-04T01:43:21.873Z,39.00
2019-02-04T01:45:51.442Z,42.10
2019-02-04T01:48:21.078Z,42.67
2019-02-04T01:50:50.649Z,41.87
2019-02-04T01:53:20.382Z,38.93
2019-02-04T01:55:49.990Z,47.07
2019-02-04T01:58:19.712Z,42.43
2019-02-04T02:00:49.345Z,41.80
2019-02-04T02:03:18.909Z,38.77
2019-02-04T02:05:48.567Z,37.40
2019-02-04T02:08:18.214Z,36.43
2019-02-04T02:10:47.856Z,36.00
2019-02-04T02:13:17.762Z,34.90
2019-02-04T02:15:47.449Z,38.93
2019-02-04T02:18:17.014Z,36.17
2019-02-04T02:20:46.706Z,39.43
2019-02-04T02:23:16.365Z,32.07
2019-02-04T02:25:46.050Z,34.00
2019-02-04T02:28:15.692Z,37.77
2019-02-04T02:30:45.361Z,45.17
2019-02-04T02:33:15.048Z,44.17
2019-02-04T02:35:44.567Z,43.20
2019-02-04T02:38:14.205Z,43.00
2019-02-04T02:40:44.212Z,48.40
2019-02-04T02:43:13.761Z,39.83
2019-02-04T02:45:43.420Z,46.87
2019-02-04T02:48:13.093Z,51.13
2019-02-04T02:50:42.642Z,43.50
2019-02-04T02:53:12.271Z,40.83
2019-02-04T02:55:42.016Z,48.93
2019-02-04T02:58:11.747Z,47.97
2019-02-04T03:00:41.398Z,43.77
2019-02-04T03:03:11.082Z,50.30
2019-02-04T03:05:40.771Z,51.83
2019-02-04T03:08:10.255Z,50.67
2019-02-04T03:10:39.855Z,41.37
2019-02-04T03:13:09.428Z,45.77
2019-02-04T03:15:39.221Z,41.27
2019-02-04T03:18:08.930Z,43.43
2019-02-04T03:20:38.466Z,42.20
2019-02-04T03:23:08.440Z,41.07
2019-02-04T03:25:38.091Z,37.23
2019-02-04T03:28:07.619Z,36.90
2019-02-04T03:30:37.184Z,39.77
2019-02-04T03:33:06.765Z,35.90
2019-02-04T03:35:36.410Z,39.43
2019-02-04T03:38:06.101Z,37.13
2019-02-04T03:40:35.891Z,35.33
2019-02-04T03:43:05.570Z,37.27
2019-02-04T03:45:35.233Z,40.27
2019-02-04T03:48:08.080Z,36.23
2019-02-04T03:50:36.321Z,40.77
2019-02-04T03:53:06.075Z,46.30
2019-02-04T03:55:35.735Z,51.30
2019-02-04T03:58:05.469Z,41.03
2019-02-04T04:00:36.612Z,42.43
2019-02-04T04:03:06.273Z,40.93
2019-02-04T04:05:35.960Z,36.37
2019-02-04T04:08:05.619Z,43.90
2019-02-04T04:10:35.276Z,49.27
2019-02-04T04:13:04.938Z,49.33
2019-02-04T04:15:34.823Z,52.77
2019-02-04T04:18:15.131Z,59.13
2019-02-04T04:20:35.872Z,63.00
2019-02-04T04:23:05.587Z,64.70
2019-02-04T04:25:35.193Z,69.90
2019-02-04T04:28:04.808Z,74.63
2019-02-04T04:30:34.588Z,75.13
2019-02-04T04:33:04.207Z,69.57
2019-02-04T04:35:33.903Z,69.17
2019-02-04T04:38:03.548Z,70.67
2019-02-04T04:40:33.566Z,78.67
2019-02-04T04:43:03.241Z,74.97
2019-02-04T04:45:33.335Z,82.97
2019-02-04T04:48:02.949Z,85.30
2019-02-04T04:50:32.587Z,90.07
2019-02-04T04:53:02.263Z,82.97
2019-02-04T04:55:31.837Z,89.97
2019-02-04T04:58:01.529Z,91.13
2019-02-04T05:00:32.220Z,101.47
2019-02-04T05:03:01.856Z,107.30
2019-02-04T05:05:31.415Z,103.30
2019-02-04T05:08:01.033Z,97.80
2019-02-04T05:10:30.721Z,107.20
2019-02-04T05:13:00.418Z,95.50
2019-02-04T05:15:30.094Z,97.00
2019-02-04T05:17:59.652Z,110.40
2019-02-04T05:20:29.316Z,106.93
2019-02-04T05:22:58.986Z,98.73
2019-02-04T05:25:28.686Z,98.70
2019-02-04T05:27:58.370Z,96.73
2019-02-04T05:30:27.981Z,97.17
2019-02-04T05:32:57.604Z,100.93
2019-02-04T05:35:27.321Z,96.30
2019-02-04T05:37:56.898Z,97.47
2019-02-04T05:40:26.822Z,98.80
2019-02-04T05:42:56.508Z,107.87
2019-02-04T05:45:26.077Z,97.57
2019-02-04T05:47:55.738Z,84.30
2019-02-04T05:50:25.370Z,93.70
2019-02-04T05:52:55.005Z,95.83
2019-02-04T05:55:25.073Z,97.00
2019-02-04T05:57:54.720Z,96.57
2019-02-04T06:00:34.492Z,91.73
2019-02-04T06:03:04.291Z,94.47
2019-02-04T06:05:33.966Z,89.50
2019-02-04T06:08:04.157Z,99.97
2019-02-04T06:10:33.804Z,104.33
2019-02-04T06:13:03.457Z,100.93
2019-02-04T06:15:33.156Z,105.93
2019-02-04T06:18:02.736Z,100.37
2019-02-04T06:20:32.737Z,97.63
2019-02-04T06:23:02.333Z,106.13
2019-02-04T06:25:31.835Z,102.67
2019-02-04T06:28:01.456Z,93.80
2019-02-04T06:30:30.945Z,82.17
2019-02-04T06:33:00.640Z,94.47
2019-02-04T06:35:30.482Z,96.60
2019-02-04T06:38:00.174Z,90.43
2019-02-04T06:40:29.709Z,95.47
2019-02-04T06:42:59.253Z,94.03
2019-02-04T06:45:28.832Z,92.30
2019-02-04T06:47:58.450Z,95.80
2019-02-04T06:50:28.036Z,96.83
2019-02-04T06:52:57.611Z,84.07
2019-02-04T06:55:29.912Z,86.33
2019-02-04T06:57:59.550Z,87.43
2019-02-04T07:00:29.230Z,78.00
2019-02-04T07:02:59.309Z,78.43
2019-02-04T07:05:29.003Z,75.00
2019-02-04T07:07:58.722Z,70.77
2019-02-04T07:10:28.606Z,71.90
2019-02-04T07:12:58.231Z,66.57
2019-02-04T07:15:27.998Z,65.23
2019-02-04T07:18:01.743Z,65.20
2019-02-04T07:20:29.034Z,71.47
2019-02-04T07:22:58.665Z,62.93
2019-02-04T07:25:28.336Z,66.27
2019-02-04T07:27:58.027Z,62.87
2019-02-04T07:30:28.620Z,61.03
2019-02-04T07:32:58.222Z,59.43
2019-02-04T07:35:27.933Z,60.33
2019-02-04T07:37:57.583Z,50.30
2019-02-04T07:40:34.293Z,57.30
2019-02-04T07:43:03.974Z,51.30
2019-02-04T07:45:33.971Z,54.43
2019-02-04T07:48:03.634Z,49.80
2019-02-04T07:50:33.286Z,42.17
2019-02-04T07:53:03.400Z,49.50
2019-02-04T07:55:33.217Z,48.50
2019-02-04T07:58:02.884Z,41.80
2019-02-04T08:00:33.857Z,41.73
2019-02-04T08:03:03.710Z,43.27
2019-02-04T08:05:33.348Z,47.00
2019-02-04T08:08:03.010Z,42.87
2019-02-04T08:10:32.628Z,43.50
2019-02-04T08:13:02.666Z,43.20
2019-02-04T08:15:35.134Z,41.23
2019-02-04T08:18:05.688Z,40.77
2019-02-04T08:20:35.390Z,43.47
2019-02-04T08:23:05.025Z,36.93
2019-02-04T08:25:34.655Z,42.20
2019-02-04T08:28:04.322Z,40.20
2019-02-04T08:30:38.242Z,39.23
2019-02-04T08:33:07.435Z,38.90
2019-02-04T08:35:37.158Z,41.17
2019-02-04T08:38:06.888Z,40.50
2019-02-04T08:40:36.833Z,33.03
2019-02-04T08:43:06.517Z,36.90
2019-02-04T08:45:36.148Z,34.20
2019-02-04T08:48:05.985Z,31.73
2019-02-04T08:50:35.647Z,30.90
2019-02-04T08:53:05.614Z,28.47
2019-02-04T08:55:35.641Z,28.63
2019-02-04T08:58:05.423Z,28.77
2019-02-04T09:00:35.025Z,30.87
2019-02-04T09:03:04.791Z,29.70
2019-02-04T09:05:34.477Z,27.73
2019-02-04T09:08:04.333Z,25.07
2019-02-04T09:10:34.353Z,21.33
2019-02-04T09:13:08.904Z,28.10
2019-02-04T09:15:38.685Z,21.37
2019-02-04T09:18:11.148Z,23.17
2019-02-04T09:20:40.769Z,24.73
2019-02-04T09:23:10.383Z,24.63
2019-02-04T09:25:40.069Z,20.20
2019-02-04T09:28:09.722Z,21.60
2019-02-04T09:30:39.312Z,19.60
2019-02-04T09:33:11.306Z,20.13
2019-02-04T09:35:41.126Z,23.13
2019-02-04T09:38:11.050Z,19.23
2019-02-04T09:40:42.907Z,16.97
2019-02-04T09:43:16.107Z,18.63
2019-02-04T09:45:46.920Z,18.03
2019-02-04T09:48:18.797Z,18.27
2019-02-04T09:50:51.101Z,16.60
2019-02-04T09:53:20.763Z,18.27
2019-02-04T09:55:50.470Z,16.60
2019-02-04T09:58:20.094Z,15.60
2019-02-04T10:00:49.714Z,13.63
2019-02-04T10:03:19.353Z,16.13
2019-02-04T10:05:50.853Z,15.60
2019-02-04T10:08:20.892Z,13.37
2019-02-04T10:10:50.735Z,13.97
2019-02-04T10:13:20.545Z,14.90
2019-02-04T10:15:50.190Z,12.20
2019-02-04T10:18:21.097Z,13.50
2019-02-04T10:20:50.903Z,11.70
2019-02-04T10:23:20.697Z,13.43
2019-02-04T10:25:50.461Z,12.90
2019-02-04T10:28:19.988Z,15.60
2019-02-04T10:30:49.592Z,12.67
2019-02-04T10:33:19.222Z,16.07
2019-02-04T10:35:49.047Z,10.67
2019-02-04T10:38:18.752Z,11.47
2019-02-04T10:40:48.397Z,10.57
2019-02-04T10:43:18.063Z,10.60
2019-02-04T10:45:47.843Z,11.73
2019-02-04T10:48:17.544Z,11.97
2019-02-04T10:50:47.406Z,10.13
2019-02-04T10:53:17.217Z,11.13
2019-02-04T10:55:46.754Z,12.33
2019-02-04T10:58:16.563Z,9.63
2019-02-04T11:00:46.830Z,11.23
2019-02-04T11:03:16.600Z,11.37
2019-02-04T11:05:46.323Z,10.73
2019-02-04T11:08:16.032Z,10.13
2019-02-04T11:10:45.701Z,11.37
2019-02-04T11:13:17.280Z,8.27
2019-02-04T11:15:47.723Z,11.77
2019-02-04T11:18:17.754Z,11.07
2019-02-04T11:20:57.910Z,10.37
2019-02-04T11:23:18.926Z,10.83
2019-02-04T11:25:48.626Z,11.60
2019-02-04T11:28:19.079Z,10.57
2019-02-04T11:30:55.470Z,11.13
2019-02-04T11:33:25.183Z,12.17
2019-02-04T11:35:54.835Z,9.27
2019-02-04T11:38:24.963Z,10.57
2019-02-04T11:40:55.111Z,10.80
2019-02-04T11:43:24.673Z,11.30
2019-02-04T11:45:55.049Z,8.50
2019-02-04T11:48:24.955Z,9.50
2019-02-04T11:50:54.501Z,10.50
2019-02-04T11:53:32.217Z,8.93
2019-02-04T11:55:55.432Z,11.00
2019-02-04T11:58:24.992Z,12.57
2019-02-04T12:00:54.680Z,11.80
2019-02-04T12:03:24.404Z,10.80
2019-02-04T12:05:54.075Z,10.50
2019-02-04T12:08:23.927Z,8.87
2019-02-04T12:10:56.849Z,11.37
2019-02-04T12:13:26.540Z,9.13
2019-02-04T12:15:57.285Z,10.53
2019-02-04T12:18:26.942Z,8.07
2019-02-04T12:20:56.583Z,11.03
2019-02-04T12:23:26.273Z,10.33
2019-02-04T12:25:55.933Z,9.57
2019-02-04T12:28:25.522Z,11.90
2019-02-04T12:30:55.160Z,9.03
2019-02-04T12:33:24.828Z,9.23
2019-02-04T12:35:54.641Z,8.27
2019-02-04T12:38:24.351Z,10.03
2019-02-04T12:40:54.878Z,9.43
2019-02-04T12:43:24.586Z,7.77
2019-02-04T12:45:54.388Z,9.30
2019-02-04T12:48:24.156Z,9.20
2019-02-04T12:50:54.130Z,9.43
2019-02-04T12:53:23.701Z,8.77
2019-02-04T12:55:53.394Z,10.73
2019-02-04T12:58:23.041Z,8.03
2019-02-04T13:00:52.801Z,10.67
2019-02-04T13:03:22.489Z,9.13
2019-02-04T13:05:52.426Z,11.20
2019-02-04T13:08:22.048Z,9.83
2019-02-04T13:10:51.622Z,10.87
2019-02-04T13:13:21.606Z,8.50
2019-02-04T13:15:51.328Z,9.20
2019-02-04T13:18:20.937Z,11.97
2019-02-04T13:20:50.594Z,8.73
2019-02-04T13:23:20.254Z,11.13
2019-02-04T13:25:49.879Z,7.47
2019-02-04T13:28:19.562Z,9.50
2019-02-04T13:30:50.307Z,12.30
2019-02-04T13:33:20.453Z,11.13
2019-02-04T13:35:50.090Z,9.57
2019-02-04T13:38:19.817Z,8.23
2019-02-04T13:40:49.466Z,9.37
2019-02-04T13:43:19.393Z,7.77
2019-02-04T13:45:49.159Z,9.60
2019-02-04T13:48:18.813Z,9.77
2019-02-04T13:50:48.477Z,9.60
2019-02-04T13:53:18.209Z,9.57
2019-02-04T13:55:47.996Z,11.13
2019-02-04T13:58:17.650Z,8.57
2019-02-04T14:00:47.698Z,10.17
2019-02-04T14:03:18.015Z,8.00
2019-02-04T14:05:47.894Z,7.37
2019-02-04T14:08:17.572Z,8.47
2019-02-04T14:10:47.225Z,9.07
2019-02-04T14:13:16.907Z,8.93
2019-02-04T14:15:46.657Z,8.20
2019-02-04T14:18:16.311Z,9.27
2019-02-04T14:20:46.022Z,9.80
2019-02-04T14:23:15.575Z,8.00
2019-02-04T14:25:45.254Z,7.33
2019-02-04T14:28:15.296Z,10.77
2019-02-04T14:30:46.435Z,9.50
2019-02-04T14:33:16.116Z,8.53
2019-02-04T14:35:45.669Z,9.57
2019-02-04T14:38:15.337Z,9.90
2019-02-04T14:40:45.081Z,13.43
2019-02-04T14:43:17.778Z,9.83
2019-02-04T14:45:53.385Z,8.90
2019-02-04T14:48:41.165Z,8.80
2019-02-04T14:51:38.356Z,11.33
2019-02-04T14:54:37.596Z,9.40
2019-02-04T14:57:04.202Z,8.77
2019-02-04T14:59:35.025Z,8.23
2019-02-04T15:02:10.138Z,10.43
2019-02-04T15:04:48.639Z,8.70
2019-02-04T15:07:30.134Z,8.40
2019-02-04T15:10:21.701Z,9.13
2019-02-04T15:12:57.022Z,10.40
2019-02-04T15:15:38.094Z,11.00
2019-02-04T15:18:22.860Z,8.17
2019-02-04T15:21:16.391Z,8.67
2019-02-04T15:23:48.960Z,9.00
2019-02-04T15:26:44.915Z,12.23
2019-02-04T15:29:20.193Z,8.73
2019-02-04T15:31:52.796Z,8.10
2019-02-04T15:34:27.986Z,10.03
2019-02-04T15:37:12.683Z,7.93
2019-02-04T15:40:03.396Z,9.10
2019-02-04T15:42:41.318Z,7.80
2019-02-04T15:45:19.474Z,6.87
2019-02-04T15:47:52.127Z,12.60
2019-02-04T15:50:27.546Z,6.87
2019-02-04T15:52:57.722Z,8.20
2019-02-04T15:55:27.405Z,8.17
2019-02-04T15:57:57.022Z,9.30
2019-02-04T16:00:26.792Z,8.87
2019-02-04T16:02:56.447Z,9.10
2019-02-04T16:05:26.308Z,8.07
2019-02-04T16:07:55.996Z,6.80
2019-02-04T16:10:25.658Z,11.23
2019-02-04T16:12:55.295Z,9.67
2019-02-04T16:15:24.998Z,8.57
2019-02-04T16:17:54.652Z,6.50
2019-02-04T16:20:25.133Z,9.77
2019-02-04T16:22:58.553Z,8.43
2019-02-04T16:25:25.975Z,10.07
2019-02-04T16:27:55.657Z,7.70
2019-02-04T16:30:25.316Z,7.90
2019-02-04T16:32:55.374Z,6.90
2019-02-04T16:35:25.022Z,6.43
2019-02-04T16:37:54.745Z,9.63
2019-02-04T16:40:24.372Z,8.03
2019-02-04T16:42:54.012Z,9.77
2019-02-04T16:45:24.814Z,8.30
2019-02-04T16:47:54.829Z,7.90
2019-02-04T16:50:26.462Z,8.83
2019-02-04T16:52:56.254Z,8.50
2019-02-04T16:55:25.869Z,6.97
2019-02-04T16:58:05.092Z,7.30
2019-02-04T17:03:47.917Z,8.93
2019-02-04T17:06:29.206Z,9.80
2019-02-04T17:09:10.154Z,9.77
2019-02-04T17:12:02.273Z,7.87
2019-02-04T17:14:53.140Z,6.90
2019-02-04T17:17:48.373Z,8.03
2019-02-04T17:20:10.162Z,7.87
2019-02-04T17:25:33.743Z,7.57
2019-02-04T17:28:19.330Z,10.20
2019-02-04T17:31:00.948Z,8.23
2019-02-04T17:33:42.549Z,7.53
2019-02-04T17:36:33.588Z,7.07
2019-02-04T17:39:08.044Z,7.17
2019-02-04T17:41:46.367Z,7.63
2019-02-04T17:44:17.692Z,6.53
2019-02-04T17:46:53.078Z,6.67
2019-02-04T17:49:32.656Z,6.47
2019-02-04T17:52:05.418Z,6.43
2019-02-04T17:54:37.016Z,6.87
2019-02-04T17:57:06.883Z,7.87
2019-02-04T17:59:37.939Z,6.27
2019-02-04T18:02:07.746Z,6.53
2019-02-04T18:04:37.305Z,6.53
2019-02-04T18:07:07.169Z,6.17
2019-02-04T18:09:37.090Z,10.63
2019-02-04T18:12:06.746Z,6.00
2019-02-04T18:14:36.414Z,9.80
2019-02-04T18:17:06.081Z,6.57
2019-02-04T18:19:35.907Z,7.00
2019-02-04T18:22:05.772Z,7.70
2019-02-04T18:24:35.313Z,6.50
2019-02-04T18:27:05.358Z,7.80
2019-02-04T18:29:34.983Z,7.37
2019-02-04T18:32:05.042Z,6.50
2019-02-04T18:34:34.628Z,5.90
2019-02-04T18:37:04.332Z,8.00
2019-02-04T18:39:33.902Z,6.63
2019-02-04T18:42:03.577Z,8.83
2019-02-04T18:44:33.484Z,7.03
2019-02-04T18:47:03.009Z,6.23
2019-02-04T18:49:32.645Z,6.50
2019-02-04T18:52:02.327Z,8.37
2019-02-04T18:54:32.174Z,6.33
2019-02-04T18:57:01.903Z,5.93
2019-02-04T18:59:31.576Z,6.40
2019-02-04T19:02:01.249Z,4.57
2019-02-04T19:04:30.791Z,6.80
2019-02-04T19:07:00.421Z,5.67
2019-02-04T19:09:30.209Z,5.63
2019-02-04T19:11:59.803Z,6.17
2019-02-04T19:14:31.087Z,5.83
2019-02-04T19:17:02.582Z,7.50
2019-02-04T19:19:34.335Z,7.33
2019-02-04T19:22:04.376Z,8.03
2019-02-04T19:24:34.890Z,6.67
2019-02-04T19:27:06.763Z,6.57
2019-02-04T19:29:38.975Z,7.10
2019-02-04T19:32:11.233Z,5.00
2019-02-04T19:34:43.771Z,8.37
2019-02-04T19:37:16.184Z,6.60
2019-02-04T19:39:48.322Z,6.10
2019-02-04T19:42:17.957Z,6.47
2019-02-04T19:44:51.033Z,8.13
2019-02-04T19:47:22.660Z,5.87
2019-02-04T19:49:52.506Z,8.13
2019-02-04T19:52:23.737Z,9.00
2019-02-04T19:54:55.417Z,4.70
2019-02-04T19:57:27.791Z,5.73
2019-02-04T20:00:00.580Z,4.67
2019-02-04T20:02:33.175Z,6.33
2019-02-04T20:05:06.761Z,6.03
2019-02-04T20:07:37.479Z,5.40
2019-02-04T20:10:14.455Z,7.00
2019-02-04T20:12:46.984Z,6.10
2019-02-04T20:15:25.604Z,5.57
2019-02-04T20:17:55.429Z,6.27
2019-02-04T20:20:25.470Z,6.43
2019-02-04T20:22:55.298Z,7.37
2019-02-04T20:25:29.547Z,5.80
2019-02-04T20:28:06.872Z,7.27
2019-02-04T20:30:45.652Z,7.83
2019-02-04T20:33:13.710Z,6.70
2019-02-04T20:35:43.390Z,6.87
2019-02-04T20:38:13.192Z,7.07
2019-02-04T20:40:43.199Z,8.10
2019-02-04T20:43:12.891Z,7.70
2019-02-04T20:45:42.524Z,7.23
2019-02-04T20:48:13.576Z,7.30
2019-02-04T20:50:46.078Z,5.93
2019-02-04T20:53:15.650Z,5.87
2019-02-04T20:55:45.611Z,7.30
2019-02-04T20:58:15.212Z,7.43
2019-02-04T21:00:45.293Z,6.77
2019-02-04T21:03:15.051Z,6.40
2019-02-04T21:05:44.679Z,5.87
2019-02-04T21:08:22.930Z,8.47
2019-02-04T21:11:06.597Z,5.90
2019-02-04T21:13:45.495Z,6.27
2019-02-04T21:16:37.122Z,8.17
2019-02-04T21:19:14.453Z,7.03
2019-02-04T21:21:53.517Z,6.73
2019-02-04T21:24:33.125Z,8.93
2019-02-04T21:27:17.266Z,6.67
2019-02-04T21:29:55.606Z,7.57
2019-02-04T21:32:49.207Z,8.73
2019-02-04T21:35:44.259Z,5.73
2019-02-04T21:38:32.984Z,7.13
2019-02-04T21:41:22.890Z,7.80
2019-02-04T21:44:11.612Z,7.67
2019-02-04T21:47:16.129Z,7.17
2019-02-04T21:50:13.910Z,6.97
2019-02-04T21:53:05.007Z,7.87
2019-02-04T21:55:49.659Z,6.30
2019-02-04T22:01:30.541Z,7.73
2019-02-04T22:04:43.023Z,7.63
2019-02-04T22:07:09.934Z,6.17
2019-02-04T22:09:40.238Z,8.83
2019-02-04T22:12:09.933Z,7.60
2019-02-04T22:14:49.218Z,6.70
2019-02-04T22:17:32.432Z,7.30
2019-02-04T22:20:19.288Z,7.00
2019-02-04T22:23:04.334Z,6.17
2019-02-04T22:26:06.521Z,6.80
2019-02-04T22:28:57.089Z,7.17
2019-02-04T22:34:29.005Z,6.93
2019-02-04T22:36:58.613Z,6.30
2019-02-04T22:39:28.276Z,6.83
2019-02-04T22:41:57.967Z,7.10
2019-02-04T22:44:27.666Z,6.93
2019-02-04T22:46:57.328Z,7.73
2019-02-04T22:49:26.980Z,7.67
2019-02-04T22:51:56.653Z,9.67
2019-02-04T22:54:26.629Z,7.30
2019-02-04T22:56:56.405Z,7.87
2019-02-04T22:59:26.031Z,7.67
2019-02-04T23:01:56.738Z,6.00
2019-02-04T23:04:26.849Z,6.23
2019-02-04T23:06:56.588Z,7.80
2019-02-04T23:09:40.617Z,7.97
2019-02-04T23:12:29.126Z,6.43
2019-02-04T23:15:05.036Z,7.90
2019-02-04T23:17:37.017Z,6.30
2019-02-04T23:20:08.134Z,5.63
2019-02-04T23:22:49.127Z,7.77
2019-02-04T23:25:20.471Z,8.00
2019-02-04T23:27:53.147Z,7.00
2019-02-04T23:30:27.081Z,6.53
2019-02-04T23:32:57.022Z,6.47
2019-02-04T23:35:27.185Z,8.67
2019-02-04T23:37:56.998Z,8.03
2019-02-04T23:40:28.906Z,9.80
2019-02-04T23:43:00.525Z,6.60
2019-02-04T23:45:31.173Z,8.27
2019-02-04T23:48:01.399Z,9.13
2019-02-04T23:50:32.023Z,7.03
2019-02-04T23:53:03.750Z,7.93
2019-02-04T23:55:35.416Z,8.33
2019-02-04T23:58:07.254Z,7.30
